Terminal Aerodrome Forecast
Issued by NWS

Current Version | Previous Version | Text Only | Print | Product List | Glossary Off
Versions: 1 2 3 4 5 6 7 8 9 10 11 12 13 14 15 16 17 18 19 20 21 22

000
FTUS41 KILN 212329 AAA
TAFLUK
TAF AMD
KLUK 212329Z 2123/2218 36008KT P6SM VCSH OVC060
     FM220300 03009KT P6SM -RA OVC060
     FM220800 04011G20KT P6SM -RA OVC022
     FM221400 05013G20KT 5SM -RA OVC022=

USA.gov is the U.S. government's official web portal to all federal, state and local government web resources and services.